Aviation Digital Data Service (ADDS)

Output produced by METARs form (0306 UTC 18 August 2017)
found at http://www.aviationweather.gov/adds/metars/
 
MSLP 180250Z 35003KT 300V030 9999 FEW040 28/22 Q1011 A2985 NOSIG
TAF MSLP 172125Z 1800/1824 VRB05KT 9999 FEW027 FEW037CB TX33/1818Z TN23/1811Z 
     TEMPO 1803/1807 07012KT 7000 TSRA SCT020 SCT037CB 
     FM180800 04005KT 9999 FEW020 
     FM181800 22009KT 9999 SCT030
       
MSSS 180250Z 17003KT 9999 SCT033 23/21 Q1016 A3001
MSSS 172125Z 1800/1824 20006KT 9999 FEW030 FEW040CB TX31/1819Z TN21/1810Z 
     TEMPO 1804/1808 36008KT 7000 TSRA SCT023 
     FM180800 34004KT 3000 BR SCT013 
     FM181300 36007KT 9999 FEW027